Time;durP1;ratioP1;P1;durP2;ratioP2;P2;SDS_P1;SDS_P2;PMS_P1;PMS_P2;Temp;Humidity;BMP_temperature;BMP_pressure;BME280_temperature;BME280_humidity;BME280_pressure;Samples;Min_cycle;Max_cycle;Signal;HPM_P1;HPM_P2
2021/09/17 00:27:52;;;;;;;10.23;9.05;;;;;;;24.10;86.45;100946.44;6264513;22;20019;-72
2021/09/17 00:30:38;;;;;;;11.77;8.75;;;;;;;24.23;85.23;100944.59;6310928;22;20321;-72
2021/09/17 00:33:24;;;;;;;10.10;8.63;;;;;;;24.46;83.57;100939.34;6308457;22;20018;-71
2021/09/17 00:36:09;;;;;;;15.38;8.88;;;;;;;24.36;84.01;100930.25;6287940;22;20007;-71
2021/09/17 00:38:55;;;;;;;12.60;8.70;;;;;;;24.18;85.57;100936.03;6309903;22;20377;-72
2021/09/17 00:41:42;;;;;;;10.52;8.60;;;;;;;24.37;84.14;100925.72;6287405;22;20453;-71
2021/09/17 00:44:28;;;;;;;11.48;8.13;;;;;;;24.56;83.40;100920.78;6287407;22;20072;-71
2021/09/17 00:47:14;;;;;;;26.48;10.18;;;;;;;24.53;83.50;100919.19;6308678;22;20015;-71
2021/09/17 08:38:09;;;;;;;17.38;9.85;;;;;;;28.38;68.90;100772.91;6305891;22;20027;-72
2021/09/17 08:40:59;;;;;;;35.75;11.52;;;;;;;28.11;67.83;100775.34;6309655;22;20047;-72
2021/09/17 08:43:45;;;;;;;36.67;10.77;;;;;;;27.99;67.58;100768.38;6308263;22;20085;-72
2021/09/17 08:46:31;;;;;;;28.50;10.23;;;;;;;28.08;67.09;100764.84;6307368;22;20026;-72
2021/09/17 08:49:17;;;;;;;12.77;9.68;;;;;;;28.28;67.27;100763.91;6307173;22;20090;-72
2021/09/17 08:52:03;;;;;;;14.70;9.25;;;;;;;28.30;66.53;100770.03;6310479;22;20003;-72
2021/09/17 08:54:49;;;;;;;19.45;10.45;;;;;;;28.00;68.93;100769.22;6308283;22;20014;-73
2021/09/17 08:57:35;;;;;;;16.85;10.13;;;;;;;28.38;67.92;100755.84;6307859;22;20055;-72
2021/09/17 09:00:27;;;;;;;21.08;10.13;;;;;;;28.12;68.18;100760.88;6286898;22;20098;-72
2021/09/17 09:03:33;;;;;;;15.55;9.98;;;;;;;27.88;71.00;100752.28;6312220;22;20003;-71
2021/09/17 09:06:19;;;;;;;25.55;16.15;;;;;;;27.93;69.97;100758.16;6307431;22;20003;-73
2021/09/17 09:09:17;;;;;;;18.58;13.82;;;;;;;27.81;69.72;100744.88;6309600;22;20082;-72
2021/09/17 09:12:05;;;;;;;15.20;10.00;;;;;;;28.41;66.98;100742.97;6285872;22;20053;-72
2021/09/17 09:15:11;;;;;;;12.65;9.73;;;;;;;28.98;65.33;100753.81;6308469;22;20007;-72
2021/09/17 09:18:01;;;;;;;13.57;9.13;;;;;;;29.24;63.39;100754.94;6286153;22;20022;-72
2021/09/17 09:20:48;;;;;;;15.25;10.18;;;;;;;29.35;62.46;100746.69;6307666;22;20007;-73
2021/09/17 09:23:38;;;;;;;15.70;9.95;;;;;;;29.02;64.61;100741.78;6309440;22;20023;-72
2021/09/17 13:49:00;;;;;;;17.98;13.23;;;;;;;33.02;33.29;100437.69;6273020;22;20023;-73
2021/09/17 13:51:45;;;;;;;19.17;14.88;;;;;;;32.99;33.74;100437.22;6309449;22;20090;-73
2021/09/17 13:54:35;;;;;;;21.00;14.50;;;;;;;33.04;33.81;100432.09;6309222;22;20007;-73
2021/09/17 13:57:21;;;;;;;31.17;26.52;;;;;;;32.91;34.03;100435.38;6310245;22;20003;-73
2021/09/17 14:00:08;;;;;;;19.38;15.68;;;;;;;33.13;33.94;100436.47;6307951;22;20007;-74
2021/09/17 14:02:55;;;;;;;23.85;13.70;;;;;;;32.97;34.63;100431.97;6308575;22;20390;-72
2021/09/17 14:05:41;;;;;;;17.35;13.90;;;;;;;33.18;33.60;100434.91;6286373;22;20007;-72
2021/09/17 17:35:11;;;;;;;23.55;15.40;;;;;;;29.20;47.73;100321.72;6287193;22;20414;-73
2021/09/17 17:37:57;;;;;;;30.00;14.82;;;;;;;29.13;48.33;100317.94;6309231;22;20414;-72
2021/09/17 17:40:43;;;;;;;24.95;13.77;;;;;;;29.25;47.48;100314.00;6310052;22;20291;-72
2021/09/17 17:43:29;;;;;;;32.00;14.30;;;;;;;29.40;47.24;100323.25;6307102;22;20015;-72
2021/09/17 17:46:15;;;;;;;23.42;14.10;;;;;;;29.63;47.11;100313.69;6307396;22;20125;-72
2021/09/17 17:49:01;;;;;;;21.77;13.77;;;;;;;29.58;48.18;100307.88;6308215;22;20034;-72
2021/09/17 17:51:46;;;;;;;31.83;14.85;;;;;;;29.56;48.89;100323.38;6308140;22;20082;-72
2021/09/17 17:54:32;;;;;;;26.08;14.02;;;;;;;29.48;49.78;100314.34;6307465;22;20007;-73
2021/09/17 22:30:45;;;;;;;20.10;6.93;;;;;;;26.01;100.00;100356.56;6277809;22;20031;-73
